Hoppa till innehåll

METAR väder och rapporter - EKCH

Nedan listas information från vald flygplats. Andra METARs finns längre ned på sidan. Kontakta oss om någon saknas eller skriv in egen ICAO-kod.

Coded METAR: 2024/02/26 18:20 EKCH 261820Z AUTO 35009KT 9999 NCD 05/02 Q1014 TEMPO BKN004

Weather Report @ EKCH

Issued: 26th Feb 2024 at 19:20 CET

Wind: gentle breeze from the North (350 degrees) at 9 knots (10 mph, 17 kph, 5 mps, Force 3)
Visibility: 10km or more
Temperature: 41F / 5C
Dewpoint: 36F / 2C
Humidity: 81%
Pressure: 1014 hPa
From time to time (<1hr):
Cloud: broken at 400 feet

Coded TAF: 2024/02/26 18:31 TAF EKCH 261715Z 2618/2718 36009KT CAVOK PROB40 2620/2710 0800 FG BKN002 TEMPO 2710/2715 BKN008

Weather Forecast @ EKCH

Issued: 26th Feb 2024 at 19:31 CET

Valid : 26th Feb 19:00 until 27th Feb 19:00 CET

19:00 CET
Wind: gentle breeze from the North (360 degrees) at 9 knots (10 mph, 17 kph, 5 mps, Force 3)
Weather: good visibility and no low cloud (ceiling and visibility OK)

21:00 CET to 11:00 CET
there is a 40% chance of:

Visibility: 0800 metres
Weather: fog
Cloud: broken at 200 feet

11:00 CET to 16:00 CET
Occasional

Cloud: broken at 800 feet

Internet delivery of weather data is not secure or reliable enough for operational purposes.

NEVER RELY ON THE OUTPUT OF THIS SCRIPT TO MAKE DECISIONS ABOUT ANYTHING IN WHICH THE WEATHER FORECAST AND ITS INTERPRETATION COULD BE AN ISSUE OF SAFETY.

Andra intressanta METARs

Klicka på önskad rubrik nedan för att visa nuvarande väder för den platsen.

Avstånd från stationen: NO 27kmESGG - Göteborg (Landvetter)
Uppdaterad: 2024-02-26 19:20
 Vind från NNO
Vind: NNO 15 km/h
Temperatur: 1°C
Vindavkylning: -3°C
Daggpunkt: 1°C
Luftfuktighet: 100%
Barometer: 1014 hPa
Moln: Genommulet
Sikt: 7 km
Molninformation: Genommulet 91 m
2024/02/26 18:20 ESGG 261820Z 02008KT 7000 OVC003 01/01 Q1014
Genommulet
Genommulet
  Visa detaljer för Göteborg (Landvetter)
Avstånd från stationen: N 28kmESGP - Göteborg (Säve)
Uppdaterad: 2024-02-26 19:20
 Vind från NNO
Vind: NNO 9 km/h
Temperatur: 3°C
Vindavkylning: 0°C
Daggpunkt: 1°C
Luftfuktighet: 87%
Barometer: 1015 hPa
Moln: Genommulet
Sikt: 10 km
Molninformation: Genommulet 274 m
2024/02/26 18:20 ESGP 261820Z AUTO 03005KT 360V060 9999 OVC009/// 03/01 Q1015
Genommulet
Genommulet
  Visa detaljer för Göteborg (Säve)
Avstånd från stationen: NO 419kmESSA - Stockholm (Arlanda)
Uppdaterad: 2024-02-26 19:20
 Vind från varierande
Vind: varierande 4 km/h
Temperatur: 2°C
Daggpunkt: 2°C
Luftfuktighet: 100%
Barometer: 1013 hPa
Moln: Genommulet
Sikt: 8 km
Molninformation: Genommulet 183 m
2024/02/26 18:20 ESSA 261820Z VRB02KT 8000 OVC006 02/02 Q1013 TEMPO BKN004
Genommulet
Genommulet
  Visa detaljer för Stockholm (Arlanda)
Avstånd från stationen: ONO 404kmESSB - Stockholm (Bromma)
Uppdaterad: 2024-02-26 19:20
 Vind från NO
Vind: NO 4 km/h
Temperatur: 3°C
Daggpunkt: 2°C
Luftfuktighet: 93%
Barometer: 1014 hPa
Moln: Genommulet
Sikt: 2 km
Molninformation: Genommulet 91 m
2024/02/26 18:20 ESSB 261820Z 04002KT 2100 OVC003 03/02 Q1014
Genommulet
Genommulet
  Visa detaljer för Stockholm (Bromma)
Avstånd från stationen: ONO 323kmESKN - Stockholm (Skavsta)
Uppdaterad: 2024-02-26 19:20
 Vind från S
Vind: S 6 km/h
Temperatur: 2°C
Daggpunkt: 2°C
Luftfuktighet: 100%
Barometer: 1014 hPa
Summering: Dimmigt
Moln: Övervägande molnigt
Sikt: 2 km
Molninformation: Övervägande molnigt 61 m
2024/02/26 18:20 ESKN 261820Z 19003KT 2000 BR BKN002 02/02 Q1014
Dimmigt, Övervägande molnigt
Dimmigt
Övervägande molnigt
  Visa detaljer för Stockholm (Skavsta)
Avstånd från stationen: SSO 238kmESMS - Malmö flygplats (Sturup)
Uppdaterad: 2024-02-26 19:20
 Vind från NNV
Vind: NNV 7 km/h
Temperatur: 4°C
Vindavkylning: 2°C
Daggpunkt: 0°C
Luftfuktighet: 75%
Barometer: 1013 hPa
Moln: Delvis molnigt
Sikt: 10 km
Molninformation: Delvis molnigt 1372 m
2024/02/26 18:20 ESMS 261820Z 33004KT 9999 SCT045 04/00 Q1013
Delvis molnigt
Delvis molnigt
  Visa detaljer för Malmö flygplats (Sturup)
Avstånd från stationen: O 382kmESSV - Visby flygplats
Uppdaterad: 2024-02-26 19:20
 Vind från N
Vind: N 9 km/h
Temperatur: 1°C
Vindavkylning: -2°C
Daggpunkt: 1°C
Luftfuktighet: 100%
Barometer: 1013 hPa
Summering: Dimma
Moln: Genommulet
Sikt: 0 km
Molninformation: Genommulet 61 m
2024/02/26 18:20 ESSV 261820Z 36005KT 0200 R03/0550N R21/0450N FG VV002 01/01 Q1013
Dimma, Genommulet
Dimma
Genommulet
  Visa detaljer för Visby flygplats
Avstånd från stationen: NNO 92kmESGT - Trollhättan
Uppdaterad: 2024-02-26 19:20
 Vind från calm
Vind: Vindstilla
Temperatur: 2°C
Daggpunkt: 1°C
Luftfuktighet: 93%
Barometer: 1015 hPa
Moln: Genommulet
Sikt: 10 km
Molninformation: Några få moln 213 m
Genommulet 518 m
2024/02/26 18:20 ESGT 261820Z AUTO 00000KT 9999 FEW007/// OVC017/// 02/01 Q1015
Genommulet
Genommulet
  Visa detaljer för Trollhättan
Avstånd från stationen: ONO 129kmESGJ - Jönköpings flygplats
Uppdaterad: 2024-02-26 19:20
 Vind från varierande
Vind: varierande 6 km/h
Temperatur: 2°C
Daggpunkt: 2°C
Luftfuktighet: 100%
Barometer: 1013 hPa
Moln: Övervägande molnigt
Sikt: 7 km
Molninformation: Övervägande molnigt 183 m
2024/02/26 18:20 ESGJ 261820Z VRB03KT 7000 BKN006 02/02 Q1013
Övervägande molnigt
Övervägande molnigt
  Visa detaljer för Jönköpings flygplats
Avstånd från stationen: NNO 229kmESOK - Karlstad
Uppdaterad: 2024-02-26 19:20
 Vind från NNV
Vind: NNV 9 km/h
Temperatur: 2°C
Vindavkylning: -1°C
Daggpunkt: 0°C
Luftfuktighet: 87%
Barometer: 1014 hPa
Moln: Genommulet
Sikt: 10 km
Molninformation: Genommulet 274 m
2024/02/26 18:20 ESOK 261820Z AUTO 34005KT 9999 OVC009/// 02/00 Q1014
Genommulet
Genommulet
  Visa detaljer för Karlstad
Avstånd från stationen: N 643kmESNZ - Östersund (Frösön)
Uppdaterad: 2024-02-26 19:20
 Vind från V
Vind: V 13 km/h
Temperatur: -1°C
Vindavkylning: -6°C
Daggpunkt: -3°C
Luftfuktighet: 86%
Barometer: 1012 hPa
Moln: Klart
Sikt: 10 km
2024/02/26 18:20 ESNZ 261820Z AUTO 28007KT 9999 NCD M01/M03 Q1012
Klart
Klart
  Visa detaljer för Östersund (Frösön)
Avstånd från stationen: SSO 216kmEKCH - Köpenhamn (Kastrup)
Uppdaterad: 2024-02-26 19:20
 Vind från N
Vind: N 17 km/h
Temperatur: 5°C
Vindavkylning: 2°C
Daggpunkt: 2°C
Luftfuktighet: 81%
Barometer: 1014 hPa
Moln: Klart
Sikt: 10 km
2024/02/26 18:20 EKCH 261820Z AUTO 35009KT 9999 NCD 05/02 Q1014 TEMPO BKN004
Klart
Klart
  Visa detaljer för Köpenhamn (Kastrup)
Avstånd från stationen: SV 263kmEKBI - Billund Airport
Uppdaterad: 2024-02-26 19:20
 Vind från N
Vind: N 7 km/h
Temperatur: 2°C
Vindavkylning: 0°C
Daggpunkt: 0°C
Luftfuktighet: 87%
Barometer: 1015 hPa
Moln: Några få moln
Sikt: 10 km
Molninformation: Några få moln 1158 m
2024/02/26 18:20 EKBI 261820Z AUTO 01004KT 330V050 9999 FEW038/// 02/00 Q1015
Några få moln
Några få moln
  Visa detaljer för Billund Airport
Avstånd från stationen: N 302kmENGM - Oslo (Gardermoen)
Uppdaterad: 2024-02-26 19:20
 Vind från calm
Vind: Vindstilla
Temperatur: -2°C
Daggpunkt: -3°C
Luftfuktighet: 93%
Barometer: 1014 hPa
Summering: Klart
Sikt: mer än 10 km
2024/02/26 18:20 ENGM 261820Z 00000KT CAVOK M02/M03 Q1014 NOSIG
Klart
Klart
  Visa detaljer för Oslo (Gardermoen)
Avstånd från stationen: NO 540kmEFMA - Mariehamn / Åland
Uppdaterad: 2024-02-26 19:20
 Vind från varierande
Vind: varierande 2 km/h
Temperatur: 0°C
Daggpunkt: 0°C
Luftfuktighet: 100%
Barometer: 1014 hPa
Summering: Freezing Fog
Moln: Genommulet
Sikt: 1 km
Molninformation: Genommulet 61 m
2024/02/26 18:20 EFMA 261820Z AUTO VRB01KT 0600 R21/0800N FZFG VV002 M00/M00 Q1014
Freezing fog, Genommulet
Freezing fog
Genommulet
  Visa detaljer för Mariehamn / Åland
Avstånd från stationen: S 558kmEDDT - Berlin (Tegel), Germany
Uppdaterad: 2020-11-09 07:50
Ej aktuell
 Vind från O
Vind: O 11 km/h
Temperatur: 6°C
Vindavkylning: 4°C
Daggpunkt: 5°C
Luftfuktighet: 93%
Barometer: 1027 hPa
Summering: Dimmigt
Moln: Genommulet
Sikt: 3 km
Molninformation: Genommulet 91 m
2020/11/09 06:50 EDDT 090650Z 09006KT 050V120 3000 BR OVC003 06/05 Q1027
Dimmigt, Genommulet
Dimmigt
Genommulet
  Visa detaljer för Berlin (Tegel), Germany
Avstånd från stationen: SV 737kmEHAM - Amsterdam (Schiphol)
Uppdaterad: 2024-02-26 19:25
 Vind från NNO
Vind: NNO 30 km/h
Temperatur: 5°C
Vindavkylning: 0°C
Daggpunkt: 2°C
Luftfuktighet: 81%
Barometer: 1012 hPa
Moln: Delvis molnigt
Sikt: 10 km
Molninformation: Delvis molnigt 488 m
2024/02/26 18:25 EHAM 261825Z 03016KT 360V070 9999 SCT016 05/02 Q1012 NOSIG
Delvis molnigt
Delvis molnigt
  Visa detaljer för Amsterdam (Schiphol)
Avstånd från stationen: ONO 808kmEFHK - Helsingfors (Vantaa)
Uppdaterad: 2024-02-26 19:20
 Vind från varierande
Vind: varierande 7 km/h
Temperatur: 0°C
Vindavkylning: -3°C
Daggpunkt: 0°C
Luftfuktighet: 100%
Barometer: 1012 hPa
Summering: Light snow, Dimmigt
Moln: Genommulet
Sikt: 1 km
Molninformation: Genommulet 61 m
2024/02/26 18:20 EFHK 261820Z VRB04KT 1400 R04L/P2000N R15/P2000N R22L/P2000N R22R/1300U -SN BR OVC002 00/00 Q1012 NOSIG
Light snow, Dimmigt, Genommulet
Light snow
Dimmigt
Genommulet
  Visa detaljer för Helsingfors (Vantaa)
Avstånd från stationen: SSV 537kmEDDW - Bremen
Uppdaterad: 2024-02-26 19:20
 Vind från NNO
Vind: NNO 24 km/h
Temperatur: 5°C
Vindavkylning: 1°C
Daggpunkt: 3°C
Luftfuktighet: 87%
Barometer: 1012 hPa
Moln: Delvis molnigt
Sikt: 10 km
Molninformation: Delvis molnigt 244 m
2024/02/26 18:20 EDDW 261820Z AUTO 03013KT 9999 SCT008 05/03 Q1012 TEMPO BKN008
Delvis molnigt
Delvis molnigt
  Visa detaljer för Bremen
Avstånd från stationen: SSV 861kmEDDF - Frankfurt am Main
Uppdaterad: 2024-02-26 19:20
 Vind från NNO
Vind: NNO 17 km/h
Temperatur: 10°C
Vindavkylning: 8°C
Daggpunkt: 5°C
Luftfuktighet: 71%
Barometer: 1005 hPa
Summering: Klart
Sikt: mer än 10 km
2024/02/26 18:20 EDDF 261820Z AUTO 02009KT CAVOK 10/05 Q1005 NOSIG
Klart
Klart
  Visa detaljer för Frankfurt am Main
Avstånd från stationen: SV 880kmEBBR - Bryssel international
Uppdaterad: 2024-02-26 19:20
 Vind från NNO
Vind: NNO 26 km/h
Temperatur: 5°C
Vindavkylning: 1°C
Daggpunkt: 4°C
Luftfuktighet: 93%
Barometer: 1009 hPa
Summering: Lätt regn
Moln: Övervägande molnigt
Sikt: 10 km
Molninformation: Delvis molnigt 244 m
Övervägande molnigt 366 m
2024/02/26 18:20 EBBR 261820Z 03014KT 9999 -RA SCT008 BKN012 05/04 Q1009 NOSIG
Lätt regn, Övervägande molnigt
Lätt regn
Övervägande molnigt
  Visa detaljer för Bryssel international
Avstånd från stationen: SV 738kmEHAM - Amsterdam (Schiphol)
Uppdaterad: 2024-02-26 19:25
 Vind från NNO
Vind: NNO 30 km/h
Temperatur: 5°C
Vindavkylning: 0°C
Daggpunkt: 2°C
Luftfuktighet: 81%
Barometer: 1012 hPa
Moln: Delvis molnigt
Sikt: 10 km
Molninformation: Delvis molnigt 488 m
2024/02/26 18:25 EHAM 261825Z 03016KT 360V070 9999 SCT016 05/02 Q1012 NOSIG
Delvis molnigt
Delvis molnigt
  Visa detaljer för Amsterdam (Schiphol)
Avstånd från stationen: SV 1044kmEGLL - London (Heathrow)
Uppdaterad: 2024-02-26 19:20
 Vind från NNO
Vind: NNO 17 km/h
Temperatur: 7°C
Vindavkylning: 4°C
Daggpunkt: 1°C
Luftfuktighet: 66%
Barometer: 1017 hPa
Moln: Delvis molnigt
Sikt: 10 km
Molninformation: Några få moln 792 m
Delvis molnigt 945 m
2024/02/26 18:20 EGLL 261820Z AUTO 02009KT 340V050 9999 FEW026 SCT031 07/01 Q1017
Delvis molnigt
Delvis molnigt
  Visa detaljer för London (Heathrow)
Avstånd från stationen: SV 1132kmLFPG - Paris (Charles de Gaulle)
Uppdaterad: 2024-02-26 19:30
 Vind från NNO
Vind: NNO 39 km/h
Temperatur: 6°C
Vindavkylning: 1°C
Daggpunkt: 4°C
Luftfuktighet: 87%
Barometer: 1004 hPa
Summering: Lätt regn, Duggregn
Moln: Genommulet
Sikt: 8 km
Molninformation: Genommulet 244 m
2024/02/26 18:30 LFPG 261830Z 02021KT 8000 -RADZ OVC008 06/04 Q1004 TEMPO 4000 -RADZ
Lätt regn, Duggregn, Genommulet
Lätt regn
Duggregn
Genommulet
  Visa detaljer för Paris (Charles de Gaulle)
Avstånd från stationen: SSV 1142kmLSZH - Zürich Airport
Uppdaterad: 2024-02-26 19:20
 Vind från varierande
Vind: varierande 4 km/h
Temperatur: 7°C
Daggpunkt: 2°C
Luftfuktighet: 71%
Barometer: 1001 hPa
Summering: Klart
Sikt: mer än 10 km
2024/02/26 18:20 LSZH 261820Z VRB02KT CAVOK 07/02 Q1001 NOSIG
Klart
Klart
  Visa detaljer för Zürich Airport
Avstånd från stationen: S 1749kmLIRF - Rome Airport (Fiumicino - Leonardo da Vinci)
Uppdaterad: 2024-02-26 19:20
 Vind från OSO
Vind: OSO 30 km/h
Temperatur: 11°C
Daggpunkt: 9°C
Luftfuktighet: 88%
Barometer: 1006 hPa
Moln: Delvis molnigt
Sikt: 10 km
Molninformation: Delvis molnigt 549 m
Delvis molnigt 762 m
2024/02/26 18:20 LIRF 261820Z 12016KT 9999 SCT018 SCT025 11/09 Q1006 NOSIG
Delvis molnigt
Delvis molnigt
  Visa detaljer för Rome Airport (Fiumicino - Leonardo da Vinci)
Avstånd från stationen: SO 2679kmLTAI - Antalya
Uppdaterad: 2024-02-26 19:20
 Vind från N
Vind: N 11 km/h
Temperatur: 13°C
Daggpunkt: 12°C
Luftfuktighet: 94%
Barometer: 1015 hPa
Summering: Lätt regn, Showers
Moln: Övervägande molnigt
Sikt: 10 km
Molninformation: Några få moln 610 m
Övervägande molnigt 762 m
2024/02/26 18:20 LTAI 261820Z 36006KT 9999 -SHRA FEW020CB BKN025 13/12 Q1015 NOSIG
Lätt regn, Showers, Övervägande molnigt
Lätt regn
Showers
Övervägande molnigt
  Visa detaljer för Antalya
Avstånd från stationen: VSV 6074kmKJFK - New Your (JFK)
Uppdaterad: 2024-02-26 18:51
 Vind från SSV
Vind: SSV 11 km/h
Temperatur: 7°C
Vindavkylning: 5°C
Daggpunkt: 1°C
Luftfuktighet: 66%
Barometer: 1017.6 hPa
Moln: Övervägande molnigt
Sikt: 16 km
Molninformation: Några få moln 1433 m
Övervägande molnigt 2743 m
2024/02/26 17:51 KJFK 261751Z 21006KT 10SM FEW047 BKN090 07/01 A3005 RMK AO2 RAE12 SLP176 P0000 60000 T00670011 10072 20011 56014
Övervägande molnigt
Övervägande molnigt
  Visa detaljer för New Your (JFK)
Avstånd från stationen: VSV 8848kmKLAX - Los Angeles International Airport
Uppdaterad: 2024-02-26 18:53
 Vind från calm
Vind: Vindstilla
Temperatur: 14°C
Daggpunkt: 11°C
Luftfuktighet: 82%
Barometer: 1018.3 hPa
Moln: Genommulet
Sikt: 11 km
Molninformation: Några få moln 1372 m
Delvis molnigt 3658 m
Genommulet 5486 m
2024/02/26 17:53 KLAX 261753Z 00000KT 7SM FEW045 SCT120 OVC180 14/11 A3007 RMK AO2 SLP182 T01440111 10144 20117 53017 $
Genommulet
Genommulet
  Visa detaljer för Los Angeles International Airport
Avstånd från stationen: SO 4968kmOMDB - Dubai International Airport
Uppdaterad: 2024-02-26 19:00
 Vind från V
Vind: V 19 km/h
Temperatur: 22°C
Daggpunkt: 13°C
Luftfuktighet: 57%
Barometer: 1012 hPa
Moln: Några få moln
Sikt: 10 km
Molninformation: Några få moln 914 m
2024/02/26 18:00 OMDB 261800Z 26010KT 210V280 9999 FEW030 22/13 Q1012 NOSIG
Några få moln
Några få moln
  Visa detaljer för Dubai International Airport
Avstånd från stationen: OSO 8570kmRJTT - Tokyo International Airport
Uppdaterad: 2024-02-26 19:00
 Vind från VNV
Vind: VNV 22 km/h
Temperatur: 5°C
Vindavkylning: 1°C
Daggpunkt: -7°C
Luftfuktighet: 42%
Barometer: 1013 hPa
Summering: Klart
Sikt: mer än 10 km
2024/02/26 18:00 RJTT 261800Z 29012KT CAVOK 05/M07 Q1013 NOSIG
Klart
Klart
  Visa detaljer för Tokyo International Airport
Avstånd från stationen: OSO 7125kmZBAA - Peking (Beijing Capital)
Uppdaterad: 2024-02-26 19:30
 Vind från SSO
Vind: SSO 7 km/h
Temperatur: -1°C
Vindavkylning: -3°C
Daggpunkt: -9°C
Luftfuktighet: 55%
Barometer: 1031 hPa
Summering: Klart
Sikt: mer än 10 km
2024/02/26 18:30 ZBAA 261830Z 16002MPS CAVOK M01/M09 Q1031 NOSIG
Klart
Klart
  Visa detaljer för Peking (Beijing Capital)
VÄDER KURIOSA -  Weather TermsFreezing Rain/Freezing Drizzle - Rain or drizzle which falls in liquid form and freezes on impact with cold surfaces to form a glaze on the ground and exposed objects.